createdAt,value
2018-05-23T00:02:14.202Z,14.07
2018-05-23T00:04:40.794Z,14.17
2018-05-23T00:07:07.358Z,13.70
2018-05-23T00:09:33.909Z,14.03
2018-05-23T00:12:00.464Z,14.10
2018-05-23T00:14:27.732Z,14.03
2018-05-23T00:16:54.998Z,13.10
2018-05-23T00:19:21.537Z,14.20
2018-05-23T00:21:48.075Z,14.67
2018-05-23T00:24:14.639Z,14.87
2018-05-23T00:26:41.183Z,14.70
2018-05-23T00:29:07.736Z,15.13
2018-05-23T00:31:34.264Z,15.47
2018-05-23T00:34:00.880Z,15.03
2018-05-23T00:36:27.400Z,16.20
2018-05-23T00:38:53.952Z,15.53
2018-05-23T00:41:20.566Z,15.70
2018-05-23T00:43:47.152Z,15.10
2018-05-23T00:46:13.722Z,14.40
2018-05-23T00:48:41.017Z,15.80
2018-05-23T00:51:07.532Z,14.80
2018-05-23T00:53:34.276Z,15.13
2018-05-23T00:56:00.813Z,15.27
2018-05-23T00:58:27.386Z,15.03
2018-05-23T01:00:53.956Z,15.83
2018-05-23T01:03:21.303Z,17.00
2018-05-23T01:05:48.584Z,17.43
2018-05-23T01:08:15.126Z,16.63
2018-05-23T01:10:41.667Z,17.03
2018-05-23T01:13:08.205Z,16.70
2018-05-23T01:15:34.822Z,15.40
2018-05-23T01:18:01.376Z,16.33
2018-05-23T01:20:27.984Z,16.00
2018-05-23T01:22:54.608Z,15.87
2018-05-23T01:25:21.294Z,15.53
2018-05-23T01:27:47.847Z,15.60
2018-05-23T01:30:14.442Z,15.30
2018-05-23T01:32:41.070Z,17.20
2018-05-23T01:35:07.656Z,18.07
2018-05-23T01:37:34.239Z,19.47
2018-05-23T01:40:01.634Z,17.97
2018-05-23T01:42:28.265Z,18.03
2018-05-23T01:44:55.595Z,15.67
2018-05-23T01:47:23.409Z,16.47
2018-05-23T01:49:49.981Z,16.40
2018-05-23T01:52:16.575Z,17.30
2018-05-23T01:54:43.190Z,17.97
2018-05-23T01:57:09.860Z,17.20
2018-05-23T01:59:36.447Z,17.53
2018-05-23T02:02:03.808Z,16.97
2018-05-23T02:04:31.155Z,16.23
2018-05-23T02:06:57.751Z,16.73
2018-05-23T02:09:24.383Z,16.57
2018-05-23T02:11:50.948Z,17.50
2018-05-23T02:14:17.520Z,17.40
2018-05-23T02:16:44.076Z,16.47
2018-05-23T02:19:10.709Z,17.27
2018-05-23T02:21:37.210Z,16.77
2018-05-23T02:24:03.824Z,17.20
2018-05-23T02:26:30.460Z,18.47
2018-05-23T02:28:56.994Z,18.00
2018-05-23T02:31:23.538Z,16.90
2018-05-23T02:33:50.102Z,17.37
2018-05-23T02:36:17.380Z,16.60
2018-05-23T02:38:43.920Z,18.70
2018-05-23T02:41:10.502Z,18.13
2018-05-23T02:43:37.076Z,17.83
2018-05-23T02:46:03.681Z,18.33
2018-05-23T02:48:30.333Z,18.53
2018-05-23T02:50:56.912Z,16.97
2018-05-23T02:53:23.455Z,18.50
2018-05-23T02:55:50.045Z,17.97
2018-05-23T02:58:17.366Z,19.67
2018-05-23T03:00:43.937Z,19.27
2018-05-23T03:03:11.231Z,17.53
2018-05-23T03:05:37.800Z,19.37
2018-05-23T03:08:05.171Z,19.37
2018-05-23T03:10:32.478Z,20.87
2018-05-23T03:12:59.013Z,21.70
2018-05-23T03:15:25.584Z,18.87
2018-05-23T03:17:52.155Z,18.33
2018-05-23T03:20:18.708Z,19.17
2018-05-23T03:22:45.261Z,18.80
2018-05-23T03:25:11.915Z,20.63
2018-05-23T03:27:38.515Z,20.33
2018-05-23T03:30:05.106Z,19.53
2018-05-23T03:32:31.655Z,19.63
2018-05-23T03:34:58.964Z,20.60
2018-05-23T03:37:25.522Z,19.97
2018-05-23T03:39:52.094Z,20.70
2018-05-23T03:42:19.409Z,20.23
2018-05-23T03:44:45.966Z,20.27
2018-05-23T03:47:12.513Z,20.57
2018-05-23T03:49:39.098Z,20.77
2018-05-23T03:52:05.662Z,21.67
2018-05-23T03:54:32.264Z,20.10
2018-05-23T03:56:58.818Z,20.60
2018-05-23T03:59:37.283Z,20.30
2018-05-23T04:02:16.695Z,21.00
2018-05-23T04:04:50.081Z,21.77
2018-05-23T04:07:35.427Z,21.33
2018-05-23T04:10:01.976Z,21.63
2018-05-23T04:12:28.556Z,22.63
2018-05-23T04:14:55.091Z,21.53
2018-05-23T04:17:21.682Z,20.10
2018-05-23T04:19:48.263Z,20.03
2018-05-23T04:22:14.806Z,19.63
2018-05-23T04:24:42.120Z,18.93
2018-05-23T04:27:08.704Z,18.03
2018-05-23T04:29:36.008Z,19.77
2018-05-23T04:32:02.651Z,19.13
2018-05-23T04:34:29.234Z,18.43
2018-05-23T04:36:56.741Z,18.67
2018-05-23T04:39:23.314Z,17.80
2018-05-23T04:41:49.982Z,18.23
2018-05-23T04:44:16.659Z,19.27
2018-05-23T04:46:43.251Z,18.87
2018-05-23T04:49:10.649Z,18.80
2018-05-23T04:51:37.232Z,17.20
2018-05-23T04:54:03.827Z,18.77
2018-05-23T04:56:30.373Z,18.50
2018-05-23T04:58:56.957Z,20.20
2018-05-23T05:01:23.541Z,18.70
2018-05-23T05:03:50.118Z,19.50
2018-05-23T05:06:17.404Z,18.87
2018-05-23T05:08:43.981Z,18.57
2018-05-23T05:11:10.577Z,19.00
2018-05-23T05:13:37.908Z,18.90
2018-05-23T05:16:04.528Z,18.60
2018-05-23T05:18:31.138Z,16.87
2018-05-23T05:20:57.794Z,18.27
2018-05-23T05:23:24.361Z,19.13
2018-05-23T05:25:51.685Z,17.13
2018-05-23T05:28:18.254Z,16.57
2018-05-23T05:30:45.563Z,15.13
2018-05-23T05:33:12.129Z,16.27
2018-05-23T05:35:38.699Z,14.97
2018-05-23T05:38:05.259Z,15.47
2018-05-23T05:40:31.957Z,14.50
2018-05-23T05:42:58.510Z,13.67
2018-05-23T05:45:25.033Z,13.07
2018-05-23T05:47:51.707Z,12.97
2018-05-23T05:50:18.260Z,10.97
2018-05-23T05:52:44.836Z,12.13
2018-05-23T05:55:12.241Z,11.83
2018-05-23T05:57:38.784Z,10.57
2018-05-23T06:00:05.494Z,10.40
2018-05-23T06:02:32.067Z,10.50
2018-05-23T06:04:58.631Z,9.17
2018-05-23T06:07:25.199Z,9.20
2018-05-23T06:09:51.802Z,9.23
2018-05-23T06:12:18.341Z,11.10
2018-05-23T06:14:44.908Z,9.53
2018-05-23T06:17:11.466Z,8.70
2018-05-23T06:19:38.024Z,8.53
2018-05-23T06:22:04.580Z,8.27
2018-05-23T06:24:31.089Z,9.17
2018-05-23T06:26:57.648Z,7.87
2018-05-23T06:29:24.245Z,8.00
2018-05-23T06:31:50.785Z,8.03
2018-05-23T06:34:17.323Z,7.30
2018-05-23T06:36:43.882Z,7.00
2018-05-23T06:39:11.142Z,7.47
2018-05-23T06:41:37.707Z,8.50
2018-05-23T06:44:04.301Z,9.23
2018-05-23T06:46:30.844Z,8.53
2018-05-23T06:48:58.127Z,9.20
2018-05-23T06:51:25.410Z,9.43
2018-05-23T06:53:51.968Z,7.90
2018-05-23T06:56:18.532Z,7.63
2018-05-23T06:58:45.152Z,8.03
2018-05-23T07:01:11.780Z,7.67
2018-05-23T07:03:38.380Z,7.87
2018-05-23T07:06:05.669Z,8.43
2018-05-23T07:08:32.282Z,8.93
2018-05-23T07:10:58.848Z,8.07
2018-05-23T07:13:26.135Z,7.70
2018-05-23T07:15:52.689Z,7.43
2018-05-23T07:18:19.238Z,7.97
2018-05-23T07:20:46.511Z,8.67
2018-05-23T07:23:13.125Z,8.53
2018-05-23T07:25:39.688Z,8.60
2018-05-23T07:28:06.262Z,8.97
2018-05-23T07:30:32.888Z,7.93
2018-05-23T07:32:59.455Z,8.30
2018-05-23T07:35:25.989Z,7.77
2018-05-23T07:37:52.551Z,8.40
2018-05-23T07:40:19.102Z,8.20
2018-05-23T07:42:45.698Z,9.67
2018-05-23T07:45:12.378Z,9.17
2018-05-23T07:47:38.921Z,9.33
2018-05-23T07:50:05.484Z,9.57
2018-05-23T07:52:32.030Z,8.53
2018-05-23T07:54:58.604Z,8.37
2018-05-23T07:57:25.155Z,8.93
2018-05-23T07:59:51.688Z,9.43
2018-05-23T08:02:18.276Z,7.80
2018-05-23T08:04:44.889Z,7.63
2018-05-23T08:07:12.194Z,7.37
2018-05-23T08:09:39.447Z,7.70
2018-05-23T08:12:06.748Z,6.90
2018-05-23T08:14:33.264Z,6.63
2018-05-23T08:16:59.996Z,5.40
2018-05-23T08:19:26.574Z,5.40
2018-05-23T08:21:53.143Z,4.60
2018-05-23T08:24:19.769Z,6.30
2018-05-23T08:26:46.266Z,6.27
2018-05-23T08:29:12.835Z,6.30
2018-05-23T08:31:39.410Z,6.67
2018-05-23T08:34:05.948Z,5.77
2018-05-23T08:36:32.551Z,4.80
2018-05-23T08:38:59.076Z,5.10
2018-05-23T08:41:25.620Z,5.40
2018-05-23T08:43:52.259Z,4.73
2018-05-23T08:46:19.569Z,4.67
2018-05-23T08:48:46.117Z,5.67
2018-05-23T08:51:12.671Z,4.77
2018-05-23T08:53:39.207Z,5.10
2018-05-23T08:56:05.743Z,4.73
2018-05-23T08:58:33.037Z,4.60
2018-05-23T09:00:59.587Z,4.27
2018-05-23T09:03:26.124Z,4.50
2018-05-23T09:05:52.724Z,4.87
2018-05-23T09:08:19.270Z,5.27
2018-05-23T09:10:45.818Z,5.07
2018-05-23T09:13:12.359Z,4.73
2018-05-23T09:15:39.648Z,5.83
2018-05-23T09:18:06.183Z,5.80
2018-05-23T09:20:32.739Z,5.40
2018-05-23T09:22:59.297Z,5.60
2018-05-23T09:25:25.860Z,4.97
2018-05-23T09:27:52.416Z,4.83
2018-05-23T09:30:18.950Z,5.37
2018-05-23T09:32:45.484Z,5.13
2018-05-23T09:35:12.137Z,4.97
2018-05-23T09:37:38.662Z,5.60
2018-05-23T09:40:05.193Z,5.50
2018-05-23T09:42:31.716Z,4.70
2018-05-23T09:44:58.247Z,4.43
2018-05-23T09:47:25.516Z,5.50
2018-05-23T09:49:52.076Z,5.30
2018-05-23T09:52:19.473Z,5.47
2018-05-23T09:54:45.994Z,5.40
2018-05-23T09:57:12.571Z,5.57
2018-05-23T09:59:39.151Z,5.50
2018-05-23T10:02:05.694Z,5.17
2018-05-23T10:04:32.972Z,5.20
2018-05-23T10:06:59.814Z,4.67
2018-05-23T10:09:26.348Z,5.30
2018-05-23T10:11:52.885Z,5.80
2018-05-23T10:16:55.974Z,6.10
2018-05-23T10:19:23.275Z,5.87
2018-05-23T10:21:49.875Z,5.97
2018-05-23T10:24:16.470Z,5.97
2018-05-23T10:26:43.319Z,6.10
2018-05-23T10:29:09.924Z,5.93
2018-05-23T10:31:36.433Z,5.70
2018-05-23T10:34:03.018Z,7.20
2018-05-23T10:36:29.559Z,6.00
2018-05-23T10:38:56.141Z,6.13
2018-05-23T10:41:22.677Z,5.90
2018-05-23T10:43:49.245Z,5.53
2018-05-23T10:46:15.865Z,5.17
2018-05-23T10:48:42.379Z,5.40
2018-05-23T10:51:08.947Z,5.53
2018-05-23T10:53:36.301Z,4.43
2018-05-23T10:56:03.565Z,4.40
2018-05-23T10:58:30.113Z,3.93
2018-05-23T11:00:56.698Z,4.70
2018-05-23T11:03:23.227Z,5.07
2018-05-23T11:05:49.776Z,4.73
2018-05-23T11:08:16.322Z,5.10
2018-05-23T11:10:42.871Z,5.97
2018-05-23T11:13:10.175Z,5.47
2018-05-23T11:15:36.756Z,6.37
2018-05-23T11:18:03.279Z,5.53
2018-05-23T11:20:30.306Z,5.37
2018-05-23T11:22:56.867Z,5.73
2018-05-23T11:25:24.221Z,5.77
2018-05-23T11:27:51.504Z,5.47
2018-05-23T11:30:18.057Z,5.40
2018-05-23T11:32:46.132Z,5.77
2018-05-23T11:35:12.675Z,5.77
2018-05-23T11:37:39.214Z,5.60
2018-05-23T11:40:05.766Z,6.10
2018-05-23T11:42:32.492Z,5.03
2018-05-23T11:44:59.001Z,4.53
2018-05-23T11:47:25.514Z,5.00
2018-05-23T11:49:52.788Z,5.20
2018-05-23T11:52:19.386Z,5.47
2018-05-23T11:54:45.893Z,5.47
2018-05-23T11:57:12.433Z,5.03
2018-05-23T11:59:38.951Z,5.63
2018-05-23T12:02:05.488Z,5.43
2018-05-23T12:04:32.075Z,5.43
2018-05-23T12:06:58.658Z,4.87
2018-05-23T12:09:25.183Z,5.47
2018-05-23T12:11:51.717Z,4.67
2018-05-23T12:14:18.241Z,5.20
2018-05-23T12:16:44.818Z,4.90
2018-05-23T12:19:11.398Z,4.67
2018-05-23T12:21:37.927Z,4.83
2018-05-23T12:24:04.586Z,4.97
2018-05-23T12:26:31.932Z,4.27
2018-05-23T12:28:59.205Z,4.57
2018-05-23T12:31:25.752Z,3.80
2018-05-23T12:33:52.308Z,4.60
2018-05-23T12:36:18.903Z,3.97
2018-05-23T12:38:45.456Z,4.73
2018-05-23T12:41:12.014Z,4.00
2018-05-23T12:43:38.575Z,3.87
2018-05-23T12:46:05.166Z,4.37
2018-05-23T12:48:31.702Z,4.17
2018-05-23T12:50:58.289Z,3.77
2018-05-23T12:53:24.814Z,4.13
2018-05-23T12:55:51.357Z,3.80
2018-05-23T12:58:17.904Z,3.70
2018-05-23T13:00:44.500Z,4.07
2018-05-23T13:03:11.094Z,3.53
2018-05-23T13:05:38.489Z,3.57
2018-05-23T13:08:05.109Z,3.47
2018-05-23T13:10:31.637Z,4.07
2018-05-23T13:12:58.296Z,3.90
2018-05-23T13:15:24.840Z,3.63
2018-05-23T13:17:51.375Z,3.93
2018-05-23T13:20:17.943Z,3.87
2018-05-23T13:22:45.273Z,3.90
2018-05-23T13:25:11.880Z,3.93
2018-05-23T13:27:38.412Z,4.50
2018-05-23T13:30:05.014Z,4.40
2018-05-23T13:32:31.538Z,3.93
2018-05-23T13:34:58.184Z,4.20
2018-05-23T13:37:24.744Z,4.23
2018-05-23T13:39:51.354Z,4.27
2018-05-23T13:42:17.923Z,3.97
2018-05-23T13:44:45.213Z,3.83
2018-05-23T13:47:11.802Z,3.73
2018-05-23T13:49:38.360Z,3.80
2018-05-23T13:52:05.675Z,3.87
2018-05-23T13:54:32.307Z,4.17
2018-05-23T13:56:58.890Z,3.70
2018-05-23T13:59:26.132Z,3.80
2018-05-23T14:01:53.504Z,3.97
2018-05-23T14:04:19.942Z,4.00
2018-05-23T14:06:46.515Z,4.33
2018-05-23T14:09:13.077Z,4.50
2018-05-23T14:11:39.639Z,4.40
2018-05-23T14:14:06.940Z,4.27
2018-05-23T14:16:34.469Z,3.97
2018-05-23T14:19:01.039Z,3.80
2018-05-23T14:21:27.568Z,3.97
2018-05-23T14:23:54.099Z,4.30
2018-05-23T14:26:20.669Z,4.60
2018-05-23T14:28:47.367Z,4.50
2018-05-23T14:31:13.910Z,4.77
2018-05-23T14:33:40.481Z,4.33
2018-05-23T14:36:07.048Z,4.60
2018-05-23T14:38:33.597Z,4.67
2018-05-23T14:41:00.241Z,4.90
2018-05-23T14:43:26.889Z,4.93
2018-05-23T14:45:53.326Z,4.27
2018-05-23T14:48:20.278Z,5.37
2018-05-23T14:50:46.835Z,5.30
2018-05-23T14:53:13.386Z,4.60
2018-05-23T14:55:39.935Z,4.37
2018-05-23T14:58:07.288Z,4.57
2018-05-23T15:00:34.567Z,4.93
2018-05-23T15:03:01.119Z,4.20
2018-05-23T15:05:27.677Z,4.50
2018-05-23T15:07:54.202Z,4.27
2018-05-23T15:10:20.800Z,4.43
2018-05-23T15:12:47.371Z,4.80
2018-05-23T15:15:13.907Z,4.60
2018-05-23T15:17:40.428Z,4.00
2018-05-23T15:20:07.087Z,4.40
2018-05-23T15:22:33.578Z,4.17
2018-05-23T15:25:00.104Z,4.00
2018-05-23T15:27:26.684Z,3.97
2018-05-23T15:29:53.229Z,3.83
2018-05-23T15:32:19.827Z,4.23
2018-05-23T15:34:47.169Z,4.40
2018-05-23T15:37:13.735Z,4.27
2018-05-23T15:39:40.354Z,4.60
2018-05-23T15:42:07.614Z,4.70
2018-05-23T15:44:34.939Z,4.20
2018-05-23T15:47:01.490Z,3.93
2018-05-23T15:49:28.814Z,4.23
2018-05-23T15:51:55.359Z,4.30
2018-05-23T15:54:21.918Z,4.10
2018-05-23T15:56:48.548Z,4.87
2018-05-23T15:59:15.112Z,4.80
2018-05-23T16:01:41.651Z,4.87
2018-05-23T16:04:08.268Z,4.43
2018-05-23T16:06:34.858Z,4.70
2018-05-23T16:09:01.503Z,4.70
2018-05-23T16:11:28.068Z,4.50
2018-05-23T16:13:55.337Z,5.27
2018-05-23T16:16:22.638Z,5.83
2018-05-23T16:18:49.198Z,6.53
2018-05-23T16:21:15.722Z,5.93
2018-05-23T16:23:42.282Z,6.13
2018-05-23T16:26:08.821Z,5.63
2018-05-23T16:28:35.381Z,5.97
2018-05-23T16:31:02.701Z,6.07
2018-05-23T16:33:29.256Z,5.63
2018-05-23T16:35:55.849Z,5.17
2018-05-23T16:38:22.454Z,5.67
2018-05-23T16:40:49.016Z,5.30
2018-05-23T16:43:15.525Z,4.73
2018-05-23T16:45:42.058Z,4.93
2018-05-23T16:48:08.592Z,5.27
2018-05-23T16:50:35.887Z,4.90
2018-05-23T16:53:02.441Z,4.90
2018-05-23T16:55:29.014Z,5.20
2018-05-23T16:57:55.549Z,5.00
2018-05-23T17:00:22.902Z,5.33
2018-05-23T17:02:50.163Z,5.23
2018-05-23T17:05:16.695Z,5.60
2018-05-23T17:07:43.968Z,5.00
2018-05-23T17:10:10.555Z,5.27
2018-05-23T17:12:37.214Z,5.80
2018-05-23T17:15:04.470Z,5.60
2018-05-23T17:17:31.263Z,5.63
2018-05-23T17:19:57.866Z,5.27
2018-05-23T17:22:24.441Z,5.70
2018-05-23T17:24:50.985Z,5.07
2018-05-23T17:27:17.606Z,4.90
2018-05-23T17:29:44.157Z,5.40
2018-05-23T17:32:10.782Z,5.33
2018-05-23T17:34:37.348Z,4.90
2018-05-23T17:37:03.979Z,4.97
2018-05-23T17:39:31.285Z,5.57
2018-05-23T17:41:58.855Z,5.00
2018-05-23T17:44:25.495Z,5.50
2018-05-23T17:46:52.021Z,5.40
2018-05-23T17:49:18.529Z,6.30
2018-05-23T17:51:45.192Z,6.63
2018-05-23T17:54:11.777Z,6.30
2018-05-23T17:56:39.039Z,6.53
2018-05-23T17:59:05.902Z,6.53
2018-05-23T18:01:33.319Z,6.60
2018-05-23T18:04:00.007Z,6.40
2018-05-23T18:06:27.433Z,6.53
2018-05-23T18:08:53.953Z,6.40
2018-05-23T18:11:21.388Z,6.63
2018-05-23T18:13:48.182Z,6.77
2018-05-23T18:16:14.841Z,6.73
2018-05-23T18:18:41.477Z,8.10
2018-05-23T18:21:08.036Z,8.77
2018-05-23T18:23:34.624Z,8.10
2018-05-23T18:26:01.168Z,7.03
2018-05-23T18:28:27.713Z,7.27
2018-05-23T18:30:54.230Z,8.00
2018-05-23T18:33:20.760Z,7.40
2018-05-23T18:35:48.086Z,8.43
2018-05-23T18:38:14.668Z,7.90
2018-05-23T18:40:42.002Z,8.03
2018-05-23T18:43:08.573Z,8.53
2018-05-23T18:45:35.836Z,8.43
2018-05-23T18:48:04.032Z,8.97
2018-05-23T18:50:30.608Z,8.60
2018-05-23T18:52:57.280Z,8.30
2018-05-23T18:55:24.547Z,7.60
2018-05-23T18:57:51.170Z,8.50
2018-05-23T19:00:17.756Z,8.60
2018-05-23T19:02:45.211Z,9.30
2018-05-23T19:05:11.892Z,8.03
2018-05-23T19:07:38.348Z,8.77
2018-05-23T19:10:04.905Z,8.43
2018-05-23T19:12:31.446Z,7.80
2018-05-23T19:14:58.028Z,9.50
2018-05-23T19:17:24.546Z,8.50
2018-05-23T19:19:51.244Z,8.37
2018-05-23T19:22:17.827Z,9.47
2018-05-23T19:24:44.354Z,9.47
2018-05-23T19:27:10.909Z,11.77
2018-05-23T19:29:37.527Z,10.10
2018-05-23T19:32:04.076Z,8.77
2018-05-23T19:34:30.642Z,9.13
2018-05-23T19:36:58.021Z,8.70
2018-05-23T19:39:24.508Z,9.93
2018-05-23T19:41:53.948Z,9.27
2018-05-23T19:44:23.851Z,8.97
2018-05-23T19:46:52.105Z,9.83
2018-05-23T19:49:18.646Z,10.20
2018-05-23T19:51:45.171Z,9.50
2018-05-23T19:54:11.676Z,9.73
2018-05-23T19:56:38.352Z,9.27
2018-05-23T19:59:04.888Z,10.23
2018-05-23T20:01:31.511Z,9.43
2018-05-23T20:03:58.040Z,9.57
2018-05-23T20:06:24.560Z,9.50
2018-05-23T20:08:51.101Z,10.10
2018-05-23T20:11:18.405Z,10.20
2018-05-23T20:13:44.983Z,10.57
2018-05-23T20:16:13.677Z,10.53
2018-05-23T20:18:40.225Z,9.67
2018-05-23T20:21:06.856Z,11.87
2018-05-23T20:23:33.444Z,10.17
2018-05-23T20:26:00.728Z,10.80
2018-05-23T20:28:27.341Z,10.17
2018-05-23T20:30:54.685Z,9.93
2018-05-23T20:33:21.275Z,9.87
2018-05-23T20:35:47.909Z,9.73
2018-05-23T20:38:14.544Z,10.50
2018-05-23T20:40:41.182Z,11.10
2018-05-23T20:43:07.844Z,10.53
2018-05-23T20:45:34.500Z,10.90
2018-05-23T20:48:01.086Z,11.07
2018-05-23T20:50:27.643Z,11.20
2018-05-23T20:52:54.275Z,11.10
2018-05-23T20:55:21.607Z,10.40
2018-05-23T20:57:48.258Z,10.47
2018-05-23T21:00:14.880Z,10.33
2018-05-23T21:02:41.465Z,10.80
2018-05-23T21:05:08.047Z,10.97
2018-05-23T21:07:34.609Z,10.93
2018-05-23T21:10:01.210Z,9.87
2018-05-23T21:12:28.507Z,10.97
2018-05-23T21:14:55.069Z,10.20
2018-05-23T21:17:21.661Z,10.83
2018-05-23T21:19:48.201Z,11.23
2018-05-23T21:22:14.789Z,11.00
2018-05-23T21:24:41.323Z,11.00
2018-05-23T21:27:07.840Z,11.33
2018-05-23T21:29:34.361Z,11.30
2018-05-23T21:32:00.913Z,11.27
2018-05-23T21:34:27.439Z,10.43
2018-05-23T21:36:53.991Z,12.57
2018-05-23T21:39:20.551Z,11.53
2018-05-23T21:41:47.114Z,11.60
2018-05-23T21:44:13.638Z,11.00
2018-05-23T21:46:40.936Z,12.47
2018-05-23T21:49:07.508Z,11.60
2018-05-23T21:51:34.119Z,12.63
2018-05-23T21:54:00.691Z,12.80
2018-05-23T21:56:27.984Z,12.30
2018-05-23T21:58:54.548Z,13.33
2018-05-23T22:01:21.091Z,12.97
2018-05-23T22:03:47.632Z,13.80
2018-05-23T22:06:14.174Z,12.70
2018-05-23T22:08:40.721Z,12.53
2018-05-23T22:11:07.315Z,12.63
2018-05-23T22:13:33.877Z,12.70
2018-05-23T22:16:00.437Z,12.03
2018-05-23T22:18:27.715Z,12.10
2018-05-23T22:20:54.296Z,11.63
2018-05-23T22:23:20.826Z,12.47
2018-05-23T22:25:47.429Z,12.37
2018-05-23T22:28:13.987Z,13.23
2018-05-23T22:30:40.611Z,12.60
2018-05-23T22:33:07.080Z,12.90
2018-05-23T22:35:34.369Z,13.17
2018-05-23T22:38:01.623Z,12.70
2018-05-23T22:40:28.900Z,12.13
2018-05-23T22:42:55.469Z,12.70
2018-05-23T22:45:22.022Z,12.20
2018-05-23T22:47:48.635Z,12.43
2018-05-23T22:50:15.160Z,13.53
2018-05-23T22:52:41.712Z,13.37
2018-05-23T22:55:08.229Z,12.80
2018-05-23T22:57:34.832Z,13.17
2018-05-23T23:00:01.373Z,12.73
2018-05-23T23:02:27.913Z,12.93
2018-05-23T23:04:54.470Z,13.93
2018-05-23T23:07:21.023Z,12.40
2018-05-23T23:09:47.601Z,12.87
2018-05-23T23:12:14.868Z,12.50
2018-05-23T23:14:41.388Z,13.43
2018-05-23T23:17:07.913Z,13.27
2018-05-23T23:19:34.513Z,13.47
2018-05-23T23:22:01.065Z,13.33
2018-05-23T23:24:27.619Z,13.10
2018-05-23T23:26:54.165Z,13.17
2018-05-23T23:29:20.716Z,13.63
2018-05-23T23:31:48.015Z,13.17
2018-05-23T23:34:14.593Z,14.20
2018-05-23T23:36:41.141Z,13.27
2018-05-23T23:39:07.710Z,13.40
2018-05-23T23:41:34.307Z,13.63
2018-05-23T23:44:00.862Z,13.67
2018-05-23T23:46:28.159Z,13.63
2018-05-23T23:48:54.719Z,13.27
2018-05-23T23:51:21.250Z,12.13
2018-05-23T23:53:48.538Z,12.50
2018-05-23T23:56:15.096Z,13.50
2018-05-23T23:58:41.676Z,13.43
